Time;durP1;ratioP1;P1;durP2;ratioP2;P2;SDS_P1;SDS_P2;PMS_P1;PMS_P2;Temp;Humidity;BMP_temperature;BMP_pressure;BME280_temperature;BME280_humidity;BME280_pressure;Samples;Min_cycle;Max_cycle;Signal;HPM_P1;HPM_P2
2024/04/19 04:46:10;;;;;;;10.88;5.55;;;;;;;7.00;66.08;99070.94;5064409;27;20053;-96
2024/04/19 05:20:10;;;;;;;10.40;5.47;;;;;;;8.06;61.55;99121.13;5157111;27;19993;-95
2024/04/19 05:45:28;;;;;;;11.95;7.95;;;;;;;8.63;60.24;99121.47;5220284;27;20086;-96
2024/04/19 06:38:25;;;;;;;5.13;3.42;;;;;;;10.74;51.46;99139.31;1159814;22;20335;-94
2024/04/19 06:46:59;;;;;;;5.25;3.50;;;;;;;11.23;50.20;99141.25;5817849;22;20051;-96
2024/04/19 06:52:34;;;;;;;7.82;3.65;;;;;;;11.28;49.94;99113.47;5420116;22;20051;-92
2024/04/19 06:55:55;;;;;;;;;;;;;;;;;;;;;
2024/04/19 06:59:11;;;;;;;3.70;2.80;;;;;;;11.45;49.48;99113.88;5225430;27;20006;-95
2024/04/19 07:01:57;;;;;;;6.70;3.42;;;;;;;11.61;49.84;99135.34;5225724;27;20007;-95
2024/04/19 07:04:35;;;;;;;5.05;3.60;;;;;;;11.67;49.21;99110.75;5198096;27;19999;-96
2024/04/19 07:13:50;;;;;;;;;;;;;;;;;;;;;
2024/04/19 07:18:56;;;;;;;10.60;2.55;;;;;;;11.81;46.67;99120.91;5268864;22;20033;-96
2024/04/19 07:21:31;;;;;;;5.35;2.35;;;;;;;11.75;47.02;99109.34;5108756;27;20028;-96
2024/04/19 07:24:13;;;;;;;3.88;2.30;;;;;;;12.02;46.45;99137.75;5356092;22;20036;-93
2024/04/19 07:26:52;;;;;;;5.63;2.45;;;;;;;11.85;46.10;99127.31;5121089;27;20005;-91
2024/04/19 07:29:22;;;;;;;11.93;7.95;;;;;;;11.67;46.16;99116.16;5046826;27;20041;-95
2024/04/19 07:31:48;;;;;;;4.25;2.85;;;;;;;11.80;45.69;99132.78;5043630;28;20016;-93
2024/04/19 07:34:16;;;;;;;4.53;2.90;;;;;;;11.65;46.34;99112.94;5045004;28;20010;-94
2024/04/19 07:37:36;;;;;;;3.63;2.42;;;;;;;11.78;46.78;99116.84;5047103;28;20006;-95
2024/04/19 07:40:05;;;;;;;3.55;2.70;;;;;;;11.95;46.58;99107.56;5078536;28;20076;-89
2024/04/19 07:42:32;;;;;;;3.50;2.35;;;;;;;12.06;45.11;99109.13;5066931;28;20454;-89
2024/04/19 07:45:01;;;;;;;4.65;2.85;;;;;;;12.38;45.44;99126.59;5092903;28;20021;-90
2024/04/19 07:47:27;;;;;;;4.45;3.22;;;;;;;12.56;45.33;99133.97;5059787;28;20007;-89
2024/04/19 07:49:53;;;;;;;4.35;2.33;;;;;;;12.58;44.42;99114.78;5092929;28;20020;-89
2024/04/19 07:52:19;;;;;;;4.20;2.58;;;;;;;12.88;44.00;99119.78;5043148;28;20030;-88
2024/04/19 07:54:58;;;;;;;4.25;2.58;;;;;;;13.05;43.58;99113.91;5028811;28;20035;-90
2024/04/19 08:01:12;;;;;;;3.15;2.40;;;;;;;12.97;43.16;99103.75;4977744;28;20045;-89
2024/04/19 08:03:39;;;;;;;2.88;2.00;;;;;;;13.23;43.16;99133.94;5075063;28;20464;-91
2024/04/19 08:06:11;;;;;;;4.60;2.65;;;;;;;13.30;43.38;99120.06;5100206;27;20130;-93
2024/04/19 08:08:36;;;;;;;4.18;2.10;;;;;;;13.45;42.62;99113.66;5073446;27;20024;-94
2024/04/19 08:11:05;;;;;;;6.82;2.30;;;;;;;13.44;41.31;99125.56;5087764;28;20002;-91
2024/04/19 08:13:40;;;;;;;4.15;2.97;;;;;;;13.35;41.48;99098.38;5076358;27;20010;-91
2024/04/19 08:16:16;;;;;;;6.93;3.40;;;;;;;13.46;42.24;99113.34;5089637;27;20034;-92
2024/04/19 08:18:57;;;;;;;;;;;;;;;;;;;;;
2024/04/19 08:21:26;;;;;;;4.15;2.53;;;;;;;13.47;42.52;99108.75;5142300;27;20015;-96
2024/04/19 08:24:08;;;;;;;;;;;;;;;;;;;;;
2024/04/19 08:32:59;;;;;;;;;;;;;;;;;;;;;
2024/04/19 08:35:40;;;;;;;5.47;2.30;;;;;;;13.20;42.16;99085.03;4972820;28;20009;-95
2024/04/19 08:43:40;;;;;;;;;;;;;;;;;;;;;
2024/04/19 08:47:10;;;;;;;;;;;;;;;;;;;;;
2024/04/19 10:08:56;;;;;;;4.50;2.50;;;;;;;15.16;38.98;99022.34;5220481;27;20003;-96
2024/04/19 10:11:36;;;;;;;2.70;2.03;;;;;;;15.31;38.81;99014.94;5165220;27;20074;-95
2024/04/19 10:14:29;;;;;;;3.10;1.90;;;;;;;15.17;38.40;98990.63;5171245;27;20000;-95
2024/04/19 10:17:01;;;;;;;7.80;1.98;;;;;;;15.45;38.22;98996.69;5196690;27;20036;-94
2024/04/19 10:19:52;;;;;;;3.05;2.08;;;;;;;15.69;37.83;98980.06;5192438;27;19987;-95
2024/04/19 10:22:24;;;;;;;3.20;2.47;;;;;;;15.94;36.93;99008.47;5137672;27;20066;-91
2024/04/19 10:25:16;;;;;;;2.83;1.48;;;;;;;16.09;35.66;99014.63;5156575;27;20016;-95
2024/04/19 10:27:54;;;;;;;;;;;;;;;;;;;;;
2024/04/19 10:41:08;;;;;;;8.38;3.72;;;;;;;16.06;38.06;99007.09;5245026;22;20126;-95
2024/04/19 10:43:52;;;;;;;2.17;1.80;;;;;;;16.35;35.46;99009.25;5197198;27;20019;-96
2024/04/19 10:46:35;;;;;;;2.92;1.70;;;;;;;16.31;35.74;98986.53;5114113;27;20005;-94
2024/04/19 10:49:12;;;;;;;3.55;1.77;;;;;;;16.30;35.07;98991.19;5187721;27;20412;-94
2024/04/19 10:51:58;;;;;;;;;;;;;;;;;;;;;
2024/04/19 10:58:07;;;;;;;4.25;2.05;;;;;;;15.74;36.90;98979.16;4997909;28;20043;-96
2024/04/19 11:00:40;;;;;;;5.55;3.28;;;;;;;15.94;36.74;98991.41;5024588;28;20016;-92
2024/04/19 11:03:22;;;;;;;4.95;1.80;;;;;;;16.25;36.07;98977.75;5038498;28;20020;-95
2024/04/19 11:05:59;;;;;;;3.33;1.60;;;;;;;16.12;35.69;98979.50;5070534;28;19998;-96
2024/04/19 11:08:26;;;;;;;3.83;1.80;;;;;;;16.33;36.20;98987.84;5091428;28;19998;-94
2024/04/19 11:11:00;;;;;;;1.85;1.60;;;;;;;16.28;35.90;98977.13;5066245;28;20045;-92
2024/04/19 11:13:32;;;;;;;4.25;2.42;;;;;;;16.49;36.02;98971.09;5056099;28;20007;-96
2024/04/19 11:16:06;;;;;;;5.18;2.15;;;;;;;16.80;35.80;98989.19;5039844;28;20007;-94
2024/04/19 11:19:17;;;;;;;;;;;;;;;;;;;;;
2024/04/19 11:22:02;;;;;;;4.70;2.42;;;;;;;17.08;35.52;98979.63;5089484;28;20002;-96
2024/04/19 11:25:07;;;;;;;3.83;1.92;;;;;;;17.00;34.65;98966.84;5015985;28;19995;-96
2024/04/19 11:27:52;;;;;;;3.90;2.85;;;;;;;16.69;35.09;98970.47;5071079;27;20008;-95
2024/04/19 11:56:58;;;;;;;3.40;1.40;;;;;;;17.21;33.99;98953.38;5180570;27;20016;-96
2024/04/19 11:59:25;;;;;;;2.78;1.70;;;;;;;17.32;33.84;98954.59;5106748;27;19997;-96
2024/04/19 12:02:37;;;;;;;3.80;1.58;;;;;;;17.27;32.75;98943.91;5104958;27;20020;-96
2024/04/19 12:05:05;;;;;;;2.83;1.30;;;;;;;17.39;32.59;98954.13;5066852;27;20035;-96
2024/04/19 12:07:33;;;;;;;26.77;7.18;;;;;;;17.27;33.70;98946.63;5103027;27;20449;-95
2024/04/19 12:10:27;;;;;;;;;;;;;;;;;;;;;
2024/04/19 12:13:00;;;;;;;4.57;1.55;;;;;;;17.36;32.43;98947.41;5139518;27;20320;-96
2024/04/19 12:15:31;;;;;;;3.97;1.50;;;;;;;17.15;32.46;98943.78;5138069;27;20079;-96
2024/04/19 12:18:52;;;;;;;;;;;;;;;;;;;;;
2024/04/19 12:21:11;;;;;;;9.13;4.10;;;;;;;17.28;32.93;98918.28;5164750;27;20008;-96
2024/04/19 12:23:44;;;;;;;2.83;1.40;;;;;;;17.32;33.27;98927.41;5135580;27;20001;-95
2024/04/19 12:26:13;;;;;;;2.28;1.35;;;;;;;17.38;32.16;98928.03;5134216;27;20000;-96
2024/04/19 12:29:02;;;;;;;2.05;1.27;;;;;;;17.58;31.82;98915.66;5111632;27;19996;-96
2024/04/19 12:31:36;;;;;;;11.05;2.80;;;;;;;17.56;31.74;98918.69;5137730;27;20024;-96
2024/04/19 12:34:04;;;;;;;2.20;1.50;;;;;;;17.81;30.50;98937.97;5114621;27;20001;-95
2024/04/19 12:40:13;;;;;;;1.95;1.23;;;;;;;17.63;30.68;98920.91;5193711;27;20044;-95
2024/04/19 12:48:50;;;;;;;4.22;1.73;;;;;;;17.62;30.99;98932.94;5180697;27;20439;-95
2024/04/19 12:51:23;;;;;;;5.07;2.58;;;;;;;17.06;31.58;98896.75;5165744;27;20003;-96
2024/04/19 12:54:18;;;;;;;5.40;1.83;;;;;;;16.86;32.15;98898.22;5142301;27;20083;-95
2024/04/19 12:56:48;;;;;;;4.65;1.63;;;;;;;16.98;32.44;98922.84;5112414;27;19996;-93
2024/04/19 12:59:31;;;;;;;2.88;1.17;;;;;;;16.96;32.18;98897.88;5139887;27;20020;-96
2024/04/19 13:02:19;;;;;;;1.88;1.15;;;;;;;16.89;33.07;98905.72;5117718;27;20091;-96
2024/04/19 13:04:47;;;;;;;5.82;3.75;;;;;;;16.97;32.93;98923.94;5136340;27;20480;-95
2024/04/19 13:07:16;;;;;;;2.78;1.50;;;;;;;16.93;32.87;98922.97;5112610;27;19992;-94
2024/04/19 13:09:56;;;;;;;;;;;;;;;;;;;;;
2024/04/19 13:12:22;;;;;;;3.83;1.10;;;;;;;16.65;32.61;98895.31;5141627;27;20004;-96
2024/04/19 13:17:41;;;;;;;1.95;1.20;;;;;;;16.70;32.57;98895.16;5310357;22;20040;-96
2024/04/19 13:20:18;;;;;;;2.33;1.38;;;;;;;16.92;31.41;98889.56;5162564;27;20443;-96
2024/04/19 13:23:12;;;;;;;5.38;1.65;;;;;;;16.69;32.43;98883.47;5163690;27;20020;-96
2024/04/19 13:25:37;;;;;;;2.30;1.50;;;;;;;16.42;32.81;98881.88;5187418;27;20013;-95
2024/04/19 13:31:44;;;;;;;2.10;1.40;;;;;;;16.40;33.20;98869.75;5140783;27;20008;-95
2024/04/19 13:34:19;;;;;;;1.77;1.10;;;;;;;16.35;33.18;98876.13;5136452;27;20010;-94
2024/04/19 13:36:48;;;;;;;1.83;1.40;;;;;;;16.44;32.70;98882.38;5129121;27;19997;-94
2024/04/19 13:39:21;;;;;;;1.95;1.40;;;;;;;16.56;32.24;98892.63;5077742;27;20027;-94
2024/04/19 13:41:52;;;;;;;1.75;1.10;;;;;;;16.45;32.32;98873.09;5076997;27;20021;-94
2024/04/19 13:44:17;;;;;;;3.83;3.03;;;;;;;16.43;31.89;98872.59;5076220;27;20081;-94
2024/04/19 13:46:48;;;;;;;4.80;1.80;;;;;;;16.60;32.08;98885.41;5073690;27;20013;-95
2024/04/19 13:49:16;;;;;;;1.83;1.20;;;;;;;16.50;32.49;98856.63;5076332;27;20013;-94
2024/04/19 13:51:48;;;;;;;2.88;1.30;;;;;;;16.84;31.99;98867.81;5075020;27;19997;-96
2024/04/19 13:54:20;;;;;;;2.35;1.73;;;;;;;16.92;32.73;98862.38;5102574;27;20001;-96
2024/04/19 13:56:55;;;;;;;4.25;2.25;;;;;;;16.90;32.85;98870.03;5077518;27;20033;-94
2024/04/19 13:59:42;;;;;;;4.13;1.38;;;;;;;16.91;32.04;98859.97;5525870;22;20018;-93
2024/04/19 14:02:11;;;;;;;7.60;2.13;;;;;;;17.21;31.97;98890.78;5071034;28;20086;-94
2024/04/19 14:04:45;;;;;;;2.58;1.65;;;;;;;16.97;31.99;98855.94;5069821;28;20066;-94
2024/04/19 14:07:45;;;;;;;2.05;1.40;;;;;;;17.31;31.78;98876.84;5122743;27;20001;-95
2024/04/19 14:10:31;;;;;;;4.28;1.48;;;;;;;17.25;31.38;98848.19;5038630;28;20009;-94
2024/04/19 14:13:02;;;;;;;8.52;2.67;;;;;;;17.18;32.19;98850.59;5072880;28;19998;-96
2024/04/19 14:15:42;;;;;;;;;;;;;;;17.52;32.06;98876.13;5071655;28;20055;-94
2024/04/19 14:18:26;;;;;;;9.27;1.80;;;;;;;17.50;32.08;98860.09;5098927;28;19936;-94
2024/04/19 14:20:59;;;;;;;2.05;1.58;;;;;;;17.81;31.22;98839.13;5070232;28;20022;-95
2024/04/19 14:23:57;;;;;;;;;;;;;;;;;;;;;
2024/04/19 14:26:40;;;;;;;1.95;1.35;;;;;;;18.14;31.22;98839.28;5068644;28;20006;-96
2024/04/19 14:29:17;;;;;;;4.57;1.70;;;;;;;18.12;31.91;98864.13;5070225;28;19998;-96
2024/04/19 14:32:10;;;;;;;2.08;1.30;;;;;;;17.54;31.98;98846.66;5068280;28;19998;-94
2024/04/19 14:34:36;;;;;;;4.80;1.70;;;;;;;17.75;30.97;98833.06;5060671;28;20006;-94
2024/04/19 14:37:20;;;;;;;2.75;1.50;;;;;;;18.49;30.58;98856.16;5070231;28;20029;-96
2024/04/19 14:40:01;;;;;;;3.60;1.30;;;;;;;18.69;30.02;98854.50;5123013;28;20038;-94
2024/04/19 14:42:34;;;;;;;2.75;1.42;;;;;;;19.10;29.17;98830.22;5096568;28;20271;-93
2024/04/19 14:44:59;;;;;;;2.67;1.60;;;;;;;19.53;28.78;98842.56;5119945;28;19998;-96
2024/04/19 14:47:31;;;;;;;1.65;1.20;;;;;;;19.61;28.44;98843.56;5069266;28;20016;-96
2024/04/19 14:50:06;;;;;;;10.20;6.13;;;;;;;18.83;29.25;98834.38;5068983;28;20002;-95
2024/04/19 14:52:31;;;;;;;11.02;8.63;;;;;;;18.94;29.41;98860.09;5094010;28;20009;-94
2024/04/19 14:54:57;;;;;;;12.68;3.45;;;;;;;19.48;28.60;98834.59;5068111;28;20001;-96
2024/04/19 14:57:23;;;;;;;3.72;1.42;;;;;;;19.66;27.99;98829.69;5066849;28;20001;-96
2024/04/19 14:59:54;;;;;;;2.40;1.48;;;;;;;20.34;27.00;98813.41;5096166;28;19990;-95
2024/04/19 15:02:20;;;;;;;4.95;2.55;;;;;;;20.30;27.51;98814.47;5094003;28;19998;-94
2024/04/19 15:04:54;;;;;;;3.55;1.75;;;;;;;19.78;27.58;98827.00;5094979;28;20013;-96
2024/04/19 15:07:31;;;;;;;5.22;2.13;;;;;;;19.56;27.91;98817.28;5122432;27;20051;-95
2024/04/19 15:09:59;;;;;;;4.22;1.65;;;;;;;19.02;28.83;98798.38;5095861;28;19997;-95
2024/04/19 15:12:36;;;;;;;2.40;1.20;;;;;;;18.62;29.13;98805.19;5095833;28;20022;-94
2024/04/19 15:15:01;;;;;;;7.07;2.17;;;;;;;18.51;30.00;98826.63;5121360;27;20002;-95
2024/04/19 15:17:34;;;;;;;2.83;1.33;;;;;;;17.88;30.70;98815.72;5095207;27;20020;-95
2024/04/19 15:20:00;;;;;;;2.65;1.40;;;;;;;17.68;30.79;98816.44;5095477;28;20001;-96
2024/04/19 15:22:33;;;;;;;1.88;1.20;;;;;;;17.14;31.38;98795.25;5095012;28;20047;-96
2024/04/19 15:25:00;;;;;;;2.13;1.23;;;;;;;16.91;31.91;98790.06;5094563;28;20006;-96
2024/04/19 15:27:25;;;;;;;3.58;1.20;;;;;;;16.81;32.47;98798.56;5093412;28;20010;-95
2024/04/19 15:29:55;;;;;;;2.08;1.50;;;;;;;16.66;32.96;98793.59;5094207;28;20055;-95
2024/04/19 15:32:24;;;;;;;3.53;1.30;;;;;;;16.39;33.69;98781.19;5094588;28;20010;-96
2024/04/19 15:34:52;;;;;;;3.13;1.13;;;;;;;16.29;33.70;98809.47;5093896;28;20006;-95
2024/04/19 15:37:20;;;;;;;6.68;2.97;;;;;;;16.02;33.77;98784.25;5092118;28;20447;-96
2024/04/19 15:39:48;;;;;;;4.03;1.70;;;;;;;16.10;33.91;98797.03;5093408;28;20018;-96
2024/04/19 15:42:23;;;;;;;4.05;1.50;;;;;;;16.09;33.88;98802.78;5092955;28;20012;-94
2024/04/19 15:44:49;;;;;;;5.65;3.42;;;;;;;15.81;34.59;98783.25;5094916;28;20398;-96
2024/04/19 15:47:17;;;;;;;2.53;1.55;;;;;;;15.66;35.37;98789.91;5122400;28;20076;-95
2024/04/19 15:49:49;;;;;;;1.40;1.20;;;;;;;15.66;34.65;98782.56;5095139;28;20440;-94
2024/04/19 15:52:15;;;;;;;1.90;1.48;;;;;;;15.67;35.54;98805.09;5121723;28;20011;-95
2024/04/19 15:54:41;;;;;;;2.40;1.30;;;;;;;15.66;35.45;98811.63;5148569;27;20005;-93
2024/04/19 15:57:07;;;;;;;2.95;1.45;;;;;;;15.44;35.98;98783.47;5095636;28;20099;-93
2024/04/19 15:59:38;;;;;;;4.03;1.42;;;;;;;15.54;36.00;98804.06;5148972;27;20010;-94
2024/04/19 16:02:03;;;;;;;4.40;1.38;;;;;;;15.33;36.15;98793.00;5096233;28;20013;-94
2024/04/19 16:04:29;;;;;;;2.42;1.23;;;;;;;15.26;36.39;98798.09;5069097;28;20010;-93
2024/04/19 16:06:55;;;;;;;2.33;1.30;;;;;;;15.27;36.75;98805.94;5069409;28;20002;-96
2024/04/19 16:09:31;;;;;;;3.63;1.30;;;;;;;15.21;36.61;98809.91;5069822;28;20010;-95
2024/04/19 16:11:59;;;;;;;2.38;1.38;;;;;;;15.02;36.67;98790.34;5069946;28;19990;-95
2024/04/19 16:14:54;;;;;;;;;;;;;;;;;;;;;
2024/04/19 16:17:20;;;;;;;5.03;1.50;;;;;;;14.90;37.68;98782.78;5123044;28;20006;-93
2024/04/19 16:19:58;;;;;;;4.40;1.65;;;;;;;14.90;37.19;98790.91;5069989;28;20503;-96
2024/04/19 16:22:25;;;;;;;2.70;1.50;;;;;;;14.86;37.13;98806.22;5070986;28;20034;-95
2024/04/19 16:24:50;;;;;;;4.85;1.30;;;;;;;14.54;37.54;98800.72;5096432;28;20009;-94
2024/04/19 16:27:28;;;;;;;3.45;1.55;;;;;;;14.86;37.12;98819.78;5103693;28;20009;-96
2024/04/19 16:29:56;;;;;;;72.00;5.70;;;;;;;14.80;37.44;98816.38;5077321;28;20002;-94
2024/04/19 16:32:25;;;;;;;3.08;1.63;;;;;;;14.84;37.60;98825.50;5075984;28;20002;-96
2024/04/19 16:34:51;;;;;;;1.73;1.20;;;;;;;14.82;36.74;98827.72;5073176;28;20006;-96
2024/04/19 16:37:20;;;;;;;5.18;1.70;;;;;;;14.61;37.38;98805.75;5097990;28;20063;-94
2024/04/19 16:39:48;;;;;;;3.45;1.63;;;;;;;14.62;37.00;98807.34;5099241;28;20014;-94
2024/04/19 16:42:21;;;;;;;3.35;1.50;;;;;;;14.61;36.96;98829.31;5075049;28;20078;-96
2024/04/19 16:44:51;;;;;;;3.92;1.95;;;;;;;14.57;37.22;98821.03;5072615;28;20048;-96
2024/04/19 16:47:24;;;;;;;9.48;5.03;;;;;;;14.43;37.71;98812.13;5069181;28;20004;-95
2024/04/19 16:49:51;;;;;;;2.15;1.30;;;;;;;14.49;37.57;98817.09;5071179;28;20091;-95
2024/04/19 16:52:17;;;;;;;1.88;1.40;;;;;;;14.64;37.51;98843.06;5068455;28;20008;-93
2024/04/19 16:54:45;;;;;;;2.67;1.65;;;;;;;14.50;38.06;98842.28;5068278;28;20421;-94
2024/04/19 16:57:11;;;;;;;7.18;3.20;;;;;;;14.39;43.38;98838.22;5068427;28;20002;-94
2024/04/19 16:59:37;;;;;;;6.32;3.80;;;;;;;14.33;44.33;98848.38;5068194;27;20078;-95
2024/04/19 17:02:04;;;;;;;6.32;2.92;;;;;;;14.29;44.41;98840.03;5068973;28;20356;-94
2024/04/19 17:04:31;;;;;;;6.03;3.90;;;;;;;14.28;45.42;98846.59;5067125;28;20088;-93
2024/04/19 17:06:58;;;;;;;15.23;5.70;;;;;;;14.15;46.67;98852.81;5067130;28;19998;-93
2024/04/19 17:12:08;;;;;;;21.50;13.10;;;;;;;14.10;48.10;98869.19;5099306;28;20091;-93
2024/04/19 17:14:34;;;;;;;12.82;7.35;;;;;;;14.02;48.03;98870.69;5042823;28;20125;-93
2024/04/19 17:17:00;;;;;;;7.18;3.90;;;;;;;13.84;47.08;98842.69;5092533;28;20016;-94
2024/04/19 17:19:28;;;;;;;7.35;4.40;;;;;;;14.04;47.02;98873.09;5067958;28;20006;-95
2024/04/19 17:21:56;;;;;;;10.20;5.57;;;;;;;13.89;48.67;98871.53;5092828;28;20453;-94
2024/04/19 17:24:22;;;;;;;7.78;4.38;;;;;;;13.91;49.44;98877.44;5067116;28;19998;-94
2024/04/19 17:26:50;;;;;;;9.43;4.70;;;;;;;13.76;49.47;98870.44;5066361;28;20452;-93
2024/04/19 17:29:16;;;;;;;7.57;3.97;;;;;;;13.75;48.80;98858.00;5067436;28;20014;-94
2024/04/19 17:31:44;;;;;;;8.45;4.35;;;;;;;13.79;48.93;98875.25;5067769;28;19990;-95
2024/04/19 17:34:10;;;;;;;12.77;4.50;;;;;;;13.67;48.40;98839.78;5067584;28;20002;-95
2024/04/19 17:36:35;;;;;;;8.88;4.15;;;;;;;13.69;48.58;98860.00;5067418;28;19998;-94
2024/04/19 17:39:01;;;;;;;7.00;4.00;;;;;;;13.57;48.13;98861.63;5067757;28;19997;-94
2024/04/19 17:41:28;;;;;;;5.88;4.00;;;;;;;13.64;48.16;98872.84;5067662;28;20008;-94
2024/04/19 17:43:54;;;;;;;31.25;14.38;;;;;;;13.45;49.60;98846.69;5067633;28;20425;-93
2024/04/19 17:46:19;;;;;;;14.95;8.80;;;;;;;13.57;51.03;98873.22;5042483;28;20001;-94
2024/04/19 17:48:54;;;;;;;26.65;12.32;;;;;;;13.43;51.66;98867.84;5067625;28;20006;-95
2024/04/19 17:58:55;;;;;;;8.13;4.50;;;;;;;13.38;49.16;98857.09;4935262;29;20390;-94
2024/04/19 18:01:31;;;;;;;11.43;4.38;;;;;;;13.42;48.74;98865.41;4902964;28;20002;-93
2024/04/19 18:03:57;;;;;;;14.40;8.07;;;;;;;13.30;49.84;98860.50;5003079;28;20007;-91
2024/04/19 18:06:26;;;;;;;10.20;5.35;;;;;;;13.55;48.95;98883.56;5027902;28;20083;-94
2024/04/19 18:08:54;;;;;;;10.43;5.63;;;;;;;13.34;48.83;98840.69;5070852;28;20065;-96
2024/04/19 18:11:20;;;;;;;11.57;5.80;;;;;;;13.44;49.38;98861.31;5067741;28;20390;-96
2024/04/19 18:13:45;;;;;;;10.43;5.88;;;;;;;13.31;49.99;98857.50;5092404;28;20026;-95
2024/04/19 18:16:11;;;;;;;11.43;7.30;;;;;;;13.27;50.31;98867.28;5067321;28;20010;-95
2024/04/19 18:18:36;;;;;;;14.35;7.85;;;;;;;13.36;52.00;98883.63;5066460;28;20001;-95
2024/04/19 18:21:07;;;;;;;13.68;6.93;;;;;;;13.17;52.17;98866.66;5066266;28;20008;-96
2024/04/19 18:23:34;;;;;;;15.27;7.93;;;;;;;13.05;52.16;98859.03;5067073;28;20009;-96
2024/04/19 18:26:01;;;;;;;8.52;4.93;;;;;;;12.98;51.06;98856.72;5066883;28;20012;-95
2024/04/19 18:28:27;;;;;;;9.02;5.55;;;;;;;13.09;52.03;98873.56;5067302;28;20009;-96
2024/04/19 18:30:55;;;;;;;9.05;5.32;;;;;;;12.95;52.22;98851.91;5066363;28;20002;-95
2024/04/19 18:33:23;;;;;;;8.80;4.15;;;;;;;12.97;53.46;98876.75;5066785;28;20013;-95
2024/04/19 18:35:56;;;;;;;8.20;4.25;;;;;;;12.85;54.56;98882.59;5066194;28;20013;-95
2024/04/19 18:38:22;;;;;;;9.10;5.32;;;;;;;12.81;53.90;98876.19;5093501;28;20006;-93
2024/04/19 18:40:50;;;;;;;7.93;4.40;;;;;;;12.82;52.96;98861.56;5065675;28;20013;-95
2024/04/19 18:43:16;;;;;;;6.50;3.92;;;;;;;12.83;52.91;98855.09;5092411;28;20016;-95
2024/04/19 18:45:46;;;;;;;6.78;3.85;;;;;;;12.69;53.12;98840.72;5119778;28;20410;-96
2024/04/19 18:48:12;;;;;;;6.45;4.32;;;;;;;12.76;53.00;98865.44;5066676;28;20014;-95
2024/04/19 18:50:38;;;;;;;7.65;4.60;;;;;;;12.73;53.32;98855.25;5066778;28;20012;-95
2024/04/19 18:53:10;;;;;;;10.10;5.25;;;;;;;12.57;54.61;98841.19;5093344;27;20473;-96
2024/04/19 18:55:46;;;;;;;19.23;6.47;;;;;;;12.51;54.41;98836.97;5069586;28;20001;-95
2024/04/19 18:58:19;;;;;;;13.70;5.88;;;;;;;12.72;54.47;98850.94;5069545;28;20051;-96
2024/04/19 19:00:55;;;;;;;8.52;4.97;;;;;;;12.54;55.25;98844.47;5069400;28;19998;-96
2024/04/19 19:03:24;;;;;;;72.25;39.92;;;;;;;12.71;54.83;98865.53;5091810;28;20006;-95
2024/04/19 19:05:52;;;;;;;22.15;13.82;;;;;;;12.64;55.16;98860.53;5066830;28;20034;-93
2024/04/19 19:08:19;;;;;;;30.73;15.00;;;;;;;12.51;55.57;98845.88;5065777;28;20016;-94
2024/04/19 19:10:45;;;;;;;12.23;7.75;;;;;;;12.60;55.54;98858.72;5117868;27;20002;-95
2024/04/19 19:13:10;;;;;;;12.88;6.80;;;;;;;12.57;55.68;98851.19;5091016;28;20013;-95
2024/04/19 19:15:41;;;;;;;16.67;8.15;;;;;;;12.48;56.89;98838.34;5117491;28;20313;-93
2024/04/19 19:18:08;;;;;;;9.13;5.05;;;;;;;12.64;56.89;98867.84;5091625;28;20006;-94
2024/04/19 19:20:36;;;;;;;8.00;5.20;;;;;;;12.51;57.04;98847.75;5093612;28;20002;-93
2024/04/19 19:23:02;;;;;;;14.98;6.13;;;;;;;12.34;56.88;98826.69;5097894;28;20009;-95
2024/04/19 19:25:28;;;;;;;18.92;6.13;;;;;;;12.62;56.79;98851.13;5098672;28;20523;-94
2024/04/19 19:27:54;;;;;;;10.63;5.20;;;;;;;12.53;56.20;98832.88;5097067;27;20006;-93
2024/04/19 19:30:22;;;;;;;7.90;4.18;;;;;;;12.69;54.28;98843.44;5097691;28;19994;-94
2024/04/19 19:32:48;;;;;;;7.05;3.95;;;;;;;12.70;54.20;98837.75;5097815;28;20021;-93
2024/04/19 19:35:13;;;;;;;8.10;3.95;;;;;;;12.65;54.13;98818.09;5072090;28;20006;-93
2024/04/19 19:37:39;;;;;;;5.25;3.83;;;;;;;12.73;53.99;98829.03;5071187;28;20340;-93
2024/04/19 19:40:08;;;;;;;6.43;3.58;;;;;;;12.64;54.03;98816.53;5071744;28;20012;-94
2024/04/19 19:42:34;;;;;;;5.97;3.30;;;;;;;12.61;54.17;98823.28;5073401;28;20002;-93
2024/04/19 19:45:00;;;;;;;5.53;3.85;;;;;;;12.53;54.48;98813.16;5071811;27;20002;-93
2024/04/19 19:47:26;;;;;;;11.07;5.50;;;;;;;12.42;55.37;98817.94;5071385;28;20012;-94
2024/04/19 19:49:59;;;;;;;8.23;3.60;;;;;;;12.31;55.84;98825.38;5071153;28;20429;-92
2024/04/19 19:52:25;;;;;;;7.10;3.92;;;;;;;12.13;56.18;98808.09;5071105;28;20074;-95
2024/04/19 19:54:53;;;;;;;9.38;4.45;;;;;;;12.25;56.77;98833.84;5097890;28;19998;-93
2024/04/19 19:57:18;;;;;;;6.55;3.60;;;;;;;11.95;57.00;98802.72;5070786;28;20032;-95
2024/04/19 20:08:01;;;;;;;6.15;3.67;;;;;;;11.91;58.08;98807.88;5080155;28;20337;-93
2024/04/19 20:10:27;;;;;;;7.18;3.60;;;;;;;11.97;58.05;98805.91;5048574;28;20006;-94
2024/04/19 20:12:52;;;;;;;4.70;3.33;;;;;;;11.98;58.16;98815.63;5045568;28;20313;-94
2024/04/19 20:15:18;;;;;;;5.93;3.85;;;;;;;11.89;58.40;98823.53;5044458;28;20009;-94
2024/04/19 20:17:44;;;;;;;9.60;3.50;;;;;;;11.87;59.23;98820.31;5045813;28;20006;-94
2024/04/19 20:20:09;;;;;;;5.50;3.70;;;;;;;11.73;58.97;98807.56;5071789;28;20001;-95
2024/04/19 20:22:35;;;;;;;9.70;4.40;;;;;;;11.67;59.61;98811.41;5098085;28;20017;-95
2024/04/19 20:25:01;;;;;;;4.65;3.00;;;;;;;11.59;59.20;98809.34;5044672;28;20005;-94
2024/04/19 20:27:27;;;;;;;4.32;3.08;;;;;;;11.43;59.20;98797.94;5072024;28;20033;-94
2024/04/19 20:29:53;;;;;;;4.80;3.28;;;;;;;11.29;59.24;98803.25;5071725;28;19998;-95
2024/04/19 20:32:18;;;;;;;5.38;2.90;;;;;;;11.40;59.65;98813.91;5044060;28;20052;-94
2024/04/19 20:34:44;;;;;;;3.85;2.85;;;;;;;11.26;59.27;98798.41;5043166;28;20013;-95
2024/04/19 20:37:11;;;;;;;4.38;2.50;;;;;;;11.43;58.86;98816.00;5042634;28;20091;-94
2024/04/19 20:39:37;;;;;;;3.80;2.47;;;;;;;11.44;58.78;98817.63;5042667;28;20002;-93
2024/04/19 20:42:03;;;;;;;4.18;2.90;;;;;;;11.37;58.36;98804.50;5042143;28;20082;-95
2024/04/19 20:44:28;;;;;;;3.88;2.40;;;;;;;11.28;58.70;98800.81;5042227;28;20008;-94
2024/04/19 20:46:55;;;;;;;3.38;2.70;;;;;;;11.19;58.92;98797.16;5043115;28;20432;-93
2024/04/19 20:49:20;;;;;;;4.95;2.55;;;;;;;11.31;58.99;98802.97;5068222;28;20317;-94
2024/04/19 20:51:49;;;;;;;4.28;2.42;;;;;;;11.36;59.59;98829.03;5041971;28;20022;-93
2024/04/19 20:54:15;;;;;;;3.67;3.08;;;;;;;11.26;58.79;98806.50;5043713;28;20002;-93
2024/04/19 20:56:41;;;;;;;7.65;3.00;;;;;;;11.25;58.45;98798.72;5067560;28;20013;-95
2024/04/19 20:59:08;;;;;;;3.47;2.53;;;;;;;11.42;58.43;98820.59;5067613;28;20448;-94
2024/04/19 21:01:34;;;;;;;4.47;2.25;;;;;;;11.35;58.20;98817.47;5066833;28;20092;-95
2024/04/19 21:04:00;;;;;;;3.15;2.40;;;;;;;11.17;57.97;98791.25;5093578;28;20399;-96
2024/04/19 21:06:26;;;;;;;3.10;2.40;;;;;;;11.27;58.34;98812.72;5067427;28;20030;-96
2024/04/19 21:08:51;;;;;;;3.33;2.50;;;;;;;11.33;58.31;98828.53;5067396;28;20358;-95
2024/04/19 21:11:21;;;;;;;5.95;2.72;;;;;;;11.19;58.26;98806.03;5066609;28;20513;-96
2024/04/19 21:13:47;;;;;;;4.10;2.78;;;;;;;11.21;58.00;98811.16;5092598;28;20243;-96
2024/04/19 21:16:16;;;;;;;3.35;2.78;;;;;;;11.30;58.16;98822.91;5067872;28;20409;-94
2024/04/19 21:18:41;;;;;;;3.92;2.58;;;;;;;11.22;57.89;98810.06;5069158;28;20394;-94
2024/04/19 21:21:07;;;;;;;3.55;2.70;;;;;;;11.07;58.24;98784.88;5093257;28;20078;-94
2024/04/19 21:23:32;;;;;;;4.88;2.75;;;;;;;10.92;59.95;98818.16;5067873;28;20009;-94
2024/04/19 21:26:02;;;;;;;4.25;2.80;;;;;;;10.75;61.00;98798.94;5093041;28;20002;-95
2024/04/19 21:28:30;;;;;;;3.70;2.67;;;;;;;10.71;61.11;98812.16;5041974;28;20001;-93
2024/04/19 21:31:02;;;;;;;5.65;2.83;;;;;;;10.66;60.54;98796.03;5068287;28;20009;-93
2024/04/19 21:33:30;;;;;;;3.20;2.47;;;;;;;10.72;61.05;98804.88;5040928;28;19997;-95
2024/04/19 21:36:01;;;;;;;4.10;2.47;;;;;;;10.77;61.09;98793.25;5093962;28;20022;-93
2024/04/19 21:38:29;;;;;;;3.97;2.97;;;;;;;10.78;61.05;98797.56;5068506;28;20004;-95
2024/04/19 21:40:56;;;;;;;5.85;2.47;;;;;;;10.82;60.26;98790.53;5067408;28;20025;-95
2024/04/19 21:43:24;;;;;;;3.05;2.50;;;;;;;10.79;60.64;98783.00;5041523;28;19994;-94
2024/04/19 21:45:50;;;;;;;5.63;2.70;;;;;;;10.80;61.53;98803.47;5041749;28;20423;-96
2024/04/19 21:48:16;;;;;;;5.43;2.75;;;;;;;10.75;60.76;98776.59;5041447;28;20009;-95
2024/04/19 21:50:42;;;;;;;3.83;2.83;;;;;;;10.81;60.75;98803.22;5067956;28;20021;-95
2024/04/19 21:53:08;;;;;;;5.50;2.80;;;;;;;10.83;60.89;98802.91;5067308;28;19994;-94